createdAt,value
2022-08-26T00:02:07.793Z,15.30
2022-08-26T00:04:36.341Z,15.48
2022-08-26T00:07:05.296Z,15.73
2022-08-26T00:09:38.927Z,14.93
2022-08-26T00:12:12.123Z,15.00
2022-08-26T00:14:41.356Z,15.00
2022-08-26T00:17:09.404Z,15.85
2022-08-26T00:19:37.832Z,14.90
2022-08-26T00:22:06.025Z,16.15
2022-08-26T00:24:34.330Z,21.45
2022-08-26T00:27:02.335Z,16.00
2022-08-26T00:29:34.913Z,15.10
2022-08-26T00:32:05.837Z,14.55
2022-08-26T00:34:34.214Z,15.25
2022-08-26T00:37:02.597Z,15.00
2022-08-26T00:39:31.355Z,16.85
2022-08-26T00:42:00.532Z,18.10
2022-08-26T00:44:28.643Z,15.57
2022-08-26T00:47:03.881Z,16.35
2022-08-26T00:49:39.583Z,15.95
2022-08-26T00:52:11.989Z,16.63
2022-08-26T00:54:46.934Z,15.48
2022-08-26T00:57:18.672Z,15.70
2022-08-26T00:59:50.101Z,16.13
2022-08-26T01:02:21.081Z,15.30
2022-08-26T01:04:55.966Z,16.60
2022-08-26T01:07:27.570Z,15.65
2022-08-26T01:09:59.982Z,16.00
2022-08-26T01:12:30.196Z,16.23
2022-08-26T01:17:27.581Z,16.23
2022-08-26T01:20:02.491Z,17.08
2022-08-26T01:22:35.705Z,17.98
2022-08-26T01:25:07.134Z,15.98
2022-08-26T01:27:36.832Z,16.00
2022-08-26T01:30:07.411Z,15.97
2022-08-26T01:32:36.500Z,17.35
2022-08-26T01:35:08.731Z,16.05
2022-08-26T01:37:40.446Z,17.27
2022-08-26T01:40:17.859Z,19.02
2022-08-26T01:42:47.395Z,15.23
2022-08-26T01:45:20.819Z,15.75
2022-08-26T01:47:56.806Z,15.25
2022-08-26T01:50:30.680Z,16.25
2022-08-26T01:53:02.107Z,16.45
2022-08-26T01:55:34.023Z,16.42
2022-08-26T01:58:06.767Z,16.67
2022-08-26T02:00:36.553Z,14.45
2022-08-26T02:03:22.387Z,16.35
2022-08-26T02:05:55.857Z,15.63
2022-08-26T02:08:30.155Z,16.40
2022-08-26T02:11:00.088Z,20.70
2022-08-26T02:13:31.458Z,18.83
2022-08-26T02:16:00.890Z,19.27
2022-08-26T02:18:30.672Z,18.83
2022-08-26T02:20:58.764Z,16.55
2022-08-26T02:23:28.182Z,16.55
2022-08-26T02:26:03.866Z,16.03
2022-08-26T02:28:38.564Z,17.35
2022-08-26T02:31:07.187Z,17.60
2022-08-26T02:33:36.468Z,16.60
2022-08-26T02:36:05.688Z,16.00
2022-08-26T02:38:37.256Z,17.85
2022-08-26T02:41:10.173Z,27.08
2022-08-26T02:43:38.356Z,16.23
2022-08-26T02:46:07.406Z,15.50
2022-08-26T02:48:35.495Z,16.75
2022-08-26T02:51:03.884Z,17.95
2022-08-26T02:53:35.629Z,17.95
2022-08-26T02:56:04.811Z,22.50
2022-08-26T02:58:34.662Z,18.80
2022-08-26T03:01:04.846Z,16.58
2022-08-26T03:03:34.189Z,17.77
2022-08-26T03:06:02.376Z,16.60
2022-08-26T03:08:30.336Z,18.73
2022-08-26T03:10:58.964Z,18.83
2022-08-26T03:13:29.877Z,19.10
2022-08-26T03:16:01.423Z,19.95
2022-08-26T03:18:31.015Z,19.40
2022-08-26T03:20:59.541Z,19.08
2022-08-26T03:23:27.849Z,18.88
2022-08-26T03:25:56.851Z,20.02
2022-08-26T03:28:27.046Z,20.13
2022-08-26T03:30:54.541Z,18.75
2022-08-26T03:33:23.995Z,17.48
2022-08-26T03:35:53.310Z,18.50
2022-08-26T03:38:22.527Z,20.77
2022-08-26T03:40:50.537Z,27.15
2022-08-26T03:43:18.698Z,25.48
2022-08-26T03:45:46.733Z,20.33
2022-08-26T03:48:14.946Z,17.52
2022-08-26T03:50:44.705Z,18.92
2022-08-26T03:53:13.379Z,22.85
2022-08-26T03:55:43.337Z,21.52
2022-08-26T03:58:12.305Z,17.00
2022-08-26T04:00:40.366Z,19.48
2022-08-26T04:03:09.941Z,16.77
2022-08-26T04:05:39.063Z,17.38
2022-08-26T04:08:08.547Z,22.95
2022-08-26T04:10:38.913Z,17.75
2022-08-26T04:13:07.525Z,18.30
2022-08-26T04:15:35.754Z,17.63
2022-08-26T04:18:04.351Z,18.00
2022-08-26T04:20:32.507Z,19.85
2022-08-26T04:23:00.625Z,18.30
2022-08-26T04:25:30.378Z,18.33
2022-08-26T04:27:59.010Z,18.48
2022-08-26T04:30:27.661Z,19.10
2022-08-26T04:32:55.783Z,19.80
2022-08-26T04:35:25.921Z,20.27
2022-08-26T04:37:55.313Z,19.58
2022-08-26T04:40:24.079Z,18.70
2022-08-26T04:42:55.718Z,18.20
2022-08-26T04:45:25.471Z,20.75
2022-08-26T04:47:56.446Z,19.15
2022-08-26T04:50:25.800Z,20.38
2022-08-26T04:55:25.214Z,17.85
2022-08-26T04:58:10.231Z,23.08
2022-08-26T05:00:39.647Z,20.27
2022-08-26T05:03:10.594Z,21.27
2022-08-26T05:05:41.142Z,19.75
2022-08-26T05:08:10.039Z,19.10
2022-08-26T05:10:43.810Z,20.35
2022-08-26T05:13:15.590Z,22.25
2022-08-26T05:15:44.753Z,19.88
2022-08-26T05:18:14.293Z,20.42
2022-08-26T05:20:43.299Z,19.60
2022-08-26T05:23:11.263Z,21.90
2022-08-26T05:25:41.434Z,23.20
2022-08-26T05:28:10.394Z,30.20
2022-08-26T05:30:40.442Z,23.45
2022-08-26T05:33:09.439Z,22.48
2022-08-26T05:35:39.380Z,24.42
2022-08-26T05:38:12.634Z,21.75
2022-08-26T05:40:47.281Z,22.85
2022-08-26T05:43:15.819Z,20.90
2022-08-26T05:45:49.919Z,21.08
2022-08-26T05:48:22.649Z,22.25
2022-08-26T05:50:54.274Z,23.33
2022-08-26T05:53:25.921Z,23.15
2022-08-26T05:55:55.493Z,22.50
2022-08-26T05:58:24.383Z,26.58
2022-08-26T06:01:00.355Z,23.90
2022-08-26T06:03:29.371Z,24.75
2022-08-26T06:05:57.611Z,24.08
2022-08-26T06:08:25.728Z,22.65
2022-08-26T06:10:55.768Z,28.23
2022-08-26T06:13:26.801Z,23.73
2022-08-26T06:15:56.649Z,24.52
2022-08-26T06:18:32.532Z,24.30
2022-08-26T06:21:00.846Z,25.75
2022-08-26T06:23:47.409Z,27.23
2022-08-26T06:26:16.967Z,23.13
2022-08-26T06:28:45.810Z,22.75
2022-08-26T06:31:14.558Z,23.48
2022-08-26T06:33:44.590Z,22.30
2022-08-26T06:38:47.641Z,23.58
2022-08-26T06:41:15.887Z,22.58
2022-08-26T06:43:43.966Z,23.85
2022-08-26T06:46:14.123Z,23.10
2022-08-26T06:48:43.527Z,20.88
2022-08-26T06:51:14.727Z,21.95
2022-08-26T06:53:45.561Z,22.85
2022-08-26T06:56:15.047Z,22.75
2022-08-26T06:58:43.102Z,22.45
2022-08-26T07:01:19.700Z,22.85
2022-08-26T07:03:51.853Z,22.02
2022-08-26T07:06:22.884Z,21.88
2022-08-26T07:08:53.398Z,21.38
2022-08-26T07:11:22.745Z,21.65
2022-08-26T07:13:52.199Z,23.70
2022-08-26T07:16:20.424Z,21.13
2022-08-26T07:18:52.965Z,20.05
2022-08-26T07:21:22.339Z,19.85
2022-08-26T07:23:52.348Z,24.60
2022-08-26T07:26:23.217Z,24.73
2022-08-26T07:28:54.912Z,25.23
2022-08-26T07:31:24.883Z,24.75
2022-08-26T07:36:24.181Z,22.88
2022-08-26T07:38:53.503Z,20.43
2022-08-26T07:41:24.189Z,32.20
2022-08-26T07:43:52.609Z,24.45
2022-08-26T07:46:27.153Z,27.65
2022-08-26T07:49:00.129Z,33.47
2022-08-26T07:53:56.691Z,28.23
2022-08-26T07:56:25.569Z,20.88
2022-08-26T07:58:54.377Z,21.35
2022-08-26T08:01:24.114Z,23.08
2022-08-26T08:03:53.306Z,24.35
2022-08-26T08:06:27.152Z,28.43
2022-08-26T08:08:55.888Z,29.77
2022-08-26T08:11:24.635Z,23.73
2022-08-26T08:13:56.390Z,25.85
2022-08-26T08:16:26.104Z,22.05
2022-08-26T08:18:54.574Z,20.75
2022-08-26T08:21:25.464Z,20.63
2022-08-26T08:23:55.335Z,23.95
2022-08-26T08:26:24.866Z,22.48
2022-08-26T08:28:55.689Z,23.10
2022-08-26T08:31:54.548Z,23.23
2022-08-26T08:34:13.721Z,21.30
2022-08-26T08:36:43.181Z,31.30
2022-08-26T08:39:11.751Z,24.50
2022-08-26T08:41:52.761Z,21.27
2022-08-26T08:46:55.267Z,16.15
2022-08-26T08:49:25.961Z,19.33
2022-08-26T08:52:00.639Z,22.63
2022-08-26T08:54:30.065Z,19.83
2022-08-26T08:57:04.161Z,22.35
2022-08-26T08:59:34.999Z,19.00
2022-08-26T09:02:18.429Z,22.48
2022-08-26T09:05:06.841Z,18.35
2022-08-26T09:07:40.212Z,19.88
2022-08-26T09:10:25.659Z,19.73
2022-08-26T09:12:54.035Z,21.00
2022-08-26T09:15:28.551Z,22.67
2022-08-26T09:18:06.765Z,23.52
2022-08-26T09:20:45.630Z,20.30
2022-08-26T09:23:15.507Z,18.83
2022-08-26T09:25:51.046Z,22.08
2022-08-26T09:28:21.173Z,19.48
2022-08-26T09:31:03.047Z,19.60
2022-08-26T09:33:34.699Z,26.08
2022-08-26T09:36:24.838Z,20.00
2022-08-26T09:38:55.182Z,22.48
2022-08-26T09:41:27.044Z,25.77
2022-08-26T09:44:17.150Z,21.38
2022-08-26T09:46:57.256Z,24.73
2022-08-26T09:49:35.609Z,27.90
2022-08-26T09:52:08.560Z,22.90
2022-08-26T09:54:39.782Z,23.50
2022-08-26T09:57:28.412Z,19.73
2022-08-26T09:59:57.650Z,17.02
2022-08-26T10:02:47.709Z,19.77
2022-08-26T10:05:29.692Z,19.85
2022-08-26T10:07:59.550Z,22.13
2022-08-26T10:10:34.785Z,22.70
2022-08-26T10:13:10.872Z,15.98
2022-08-26T10:15:50.725Z,28.17
2022-08-26T10:18:24.850Z,17.65
2022-08-26T10:20:58.820Z,17.15
2022-08-26T10:23:32.538Z,17.10
2022-08-26T10:26:07.053Z,15.73
2022-08-26T10:28:41.314Z,19.23
2022-08-26T10:31:27.353Z,16.38
2022-08-26T10:34:00.343Z,20.92
2022-08-26T10:39:44.560Z,14.38
2022-08-26T10:42:23.048Z,19.17
2022-08-26T10:44:55.069Z,19.42
2022-08-26T10:47:32.455Z,17.65
2022-08-26T10:50:03.182Z,20.20
2022-08-26T10:52:44.912Z,16.55
2022-08-26T10:55:22.121Z,13.98
2022-08-26T10:57:59.344Z,21.83
2022-08-26T11:00:58.392Z,18.88
2022-08-26T11:03:35.643Z,15.77
2022-08-26T11:06:24.570Z,16.13
2022-08-26T11:08:53.873Z,27.67
2022-08-26T11:11:50.167Z,16.58
2022-08-26T11:14:53.590Z,24.25
2022-08-26T11:17:59.997Z,13.60
2022-08-26T11:20:37.528Z,15.85
2022-08-26T11:23:40.423Z,17.77
2022-08-26T11:26:35.444Z,14.82
2022-08-26T11:29:13.136Z,16.95
2022-08-26T11:31:57.547Z,16.92
2022-08-26T11:34:52.364Z,18.85
2022-08-26T11:37:22.740Z,17.50
2022-08-26T11:39:57.152Z,15.43
2022-08-26T11:42:34.277Z,19.80
2022-08-26T11:45:23.674Z,14.43
2022-08-26T11:47:54.623Z,17.88
2022-08-26T11:50:26.111Z,14.98
2022-08-26T11:52:56.321Z,14.48
2022-08-26T11:55:25.354Z,16.60
2022-08-26T11:57:56.279Z,12.55
2022-08-26T12:00:28.374Z,16.13
2022-08-26T12:03:08.548Z,16.00
2022-08-26T12:05:43.341Z,15.70
2022-08-26T12:08:17.938Z,14.93
2022-08-26T12:10:46.642Z,20.73
2022-08-26T12:13:23.201Z,15.68
2022-08-26T12:15:55.642Z,13.25
2022-08-26T12:18:29.555Z,15.55
2022-08-26T12:21:01.411Z,12.52
2022-08-26T12:23:43.363Z,10.23
2022-08-26T12:26:20.172Z,8.63
2022-08-26T12:28:50.958Z,8.93
2022-08-26T12:31:26.820Z,8.25
2022-08-26T12:33:59.174Z,9.18
2022-08-26T12:36:31.646Z,7.00
2022-08-26T12:39:08.099Z,8.70
2022-08-26T12:41:46.507Z,6.43
2022-08-26T12:44:35.207Z,6.68
2022-08-26T12:47:06.414Z,7.30
2022-08-26T12:49:36.438Z,6.03
2022-08-26T12:52:06.639Z,9.27
2022-08-26T12:54:56.728Z,8.70
2022-08-26T12:57:30.431Z,8.98
2022-08-26T13:00:26.277Z,13.10
2022-08-26T13:02:56.985Z,8.13
2022-08-26T13:05:33.001Z,9.32
2022-08-26T13:08:16.467Z,10.90
2022-08-26T13:10:47.348Z,15.45
2022-08-26T13:13:15.702Z,12.07
2022-08-26T13:15:44.782Z,13.13
2022-08-26T13:18:12.800Z,14.70
2022-08-26T13:20:45.121Z,17.02
2022-08-26T13:23:13.647Z,14.27
2022-08-26T13:25:42.043Z,14.13
2022-08-26T13:28:09.949Z,17.98
2022-08-26T13:30:38.074Z,16.77
2022-08-26T13:33:06.225Z,16.10
2022-08-26T13:35:34.461Z,16.95
2022-08-26T13:38:03.754Z,14.05
2022-08-26T13:40:34.621Z,13.65
2022-08-26T13:43:02.932Z,19.58
2022-08-26T13:45:31.675Z,18.00
2022-08-26T13:48:00.438Z,13.98
2022-08-26T13:50:28.458Z,18.77
2022-08-26T13:52:56.432Z,19.00
2022-08-26T13:55:25.854Z,13.32
2022-08-26T13:57:53.966Z,13.95
2022-08-26T14:00:22.924Z,11.98
2022-08-26T14:02:51.154Z,9.63
2022-08-26T14:05:19.315Z,8.70
2022-08-26T14:07:47.505Z,8.70
2022-08-26T14:10:15.586Z,9.07
2022-08-26T14:12:45.816Z,8.63
2022-08-26T14:15:16.258Z,8.05
2022-08-26T14:17:44.922Z,7.53
2022-08-26T14:20:16.968Z,10.45
2022-08-26T14:23:03.561Z,10.98
2022-08-26T14:25:34.670Z,9.50
2022-08-26T14:28:04.516Z,14.35
2022-08-26T14:33:00.578Z,13.15
2022-08-26T14:35:30.696Z,12.75
2022-08-26T14:37:59.176Z,12.25
2022-08-26T14:40:30.673Z,13.30
2022-08-26T14:42:59.922Z,12.27
2022-08-26T14:45:29.823Z,11.67
2022-08-26T14:50:27.839Z,9.88
2022-08-26T14:53:13.414Z,9.23
2022-08-26T14:55:43.391Z,7.72
2022-08-26T15:00:40.490Z,9.73
2022-08-26T15:03:09.112Z,8.88
2022-08-26T15:05:37.436Z,7.18
2022-08-26T15:08:10.370Z,7.90
2022-08-26T15:10:39.015Z,8.38
2022-08-26T15:13:07.168Z,7.43
2022-08-26T15:15:35.485Z,7.10
2022-08-26T15:18:05.535Z,5.75
2022-08-26T15:23:06.026Z,6.82
2022-08-26T15:25:34.465Z,6.68
2022-08-26T15:28:02.589Z,6.63
2022-08-26T15:30:30.561Z,7.93
2022-08-26T15:32:58.897Z,8.93
2022-08-26T15:35:28.301Z,8.77
2022-08-26T15:38:01.202Z,9.10
2022-08-26T15:40:29.392Z,11.02
2022-08-26T15:43:11.429Z,14.30
2022-08-26T15:45:45.633Z,15.07
2022-08-26T15:48:13.998Z,13.95
2022-08-26T15:50:51.579Z,13.93
2022-08-26T15:53:19.874Z,12.30
2022-08-26T15:55:48.234Z,11.80
2022-08-26T15:58:17.936Z,10.20
2022-08-26T16:00:45.996Z,10.43
2022-08-26T16:03:14.023Z,12.30
2022-08-26T16:05:44.060Z,11.48
2022-08-26T16:08:15.467Z,12.38
2022-08-26T16:10:50.011Z,10.30
2022-08-26T16:13:20.036Z,11.20
2022-08-26T16:15:48.750Z,11.30
2022-08-26T16:18:17.717Z,12.30
2022-08-26T16:20:57.823Z,11.07
2022-08-26T16:23:40.400Z,15.25
2022-08-26T16:26:12.528Z,12.82
2022-08-26T16:28:40.716Z,12.57
2022-08-26T16:31:09.552Z,13.57
2022-08-26T16:33:39.005Z,12.50
2022-08-26T16:36:08.208Z,13.57
2022-08-26T16:38:37.674Z,13.83
2022-08-26T16:41:08.245Z,12.90
2022-08-26T16:43:36.568Z,16.70
2022-08-26T16:46:06.955Z,15.55
2022-08-26T16:48:36.466Z,12.57
2022-08-26T16:51:04.615Z,15.10
2022-08-26T16:53:33.633Z,13.00
2022-08-26T16:56:01.605Z,12.77
2022-08-26T16:58:31.341Z,16.10
2022-08-26T17:00:59.384Z,11.60
2022-08-26T17:03:27.566Z,11.63
2022-08-26T17:05:55.673Z,13.55
2022-08-26T17:08:28.345Z,12.65
2022-08-26T17:10:57.272Z,11.73
2022-08-26T17:13:35.381Z,15.07
2022-08-26T17:16:07.477Z,12.70
2022-08-26T17:18:37.004Z,11.80
2022-08-26T17:21:07.214Z,12.23
2022-08-26T17:23:35.607Z,11.93
2022-08-26T17:26:04.044Z,12.40
2022-08-26T17:28:32.282Z,11.10
2022-08-26T17:31:01.095Z,12.48
2022-08-26T17:33:31.146Z,12.13
2022-08-26T17:36:00.337Z,12.48
2022-08-26T17:38:29.239Z,13.25
2022-08-26T17:40:58.055Z,12.43
2022-08-26T17:43:26.712Z,12.35
2022-08-26T17:45:59.062Z,12.82
2022-08-26T17:48:37.572Z,13.02
2022-08-26T17:51:08.384Z,13.07
2022-08-26T17:53:37.192Z,12.43
2022-08-26T17:56:08.223Z,12.30
2022-08-26T17:58:36.666Z,11.80
2022-08-26T18:01:06.337Z,11.80
2022-08-26T18:03:36.483Z,11.57
2022-08-26T18:08:36.923Z,10.35
2022-08-26T18:11:09.940Z,11.65
2022-08-26T18:13:38.132Z,12.00
2022-08-26T18:16:17.629Z,11.23
2022-08-26T18:18:47.767Z,11.55
2022-08-26T18:23:45.131Z,11.23
2022-08-26T18:26:18.277Z,12.60
2022-08-26T18:28:46.282Z,10.23
2022-08-26T18:31:15.330Z,11.20
2022-08-26T18:33:44.055Z,10.73
2022-08-26T18:36:18.525Z,10.85
2022-08-26T18:38:47.748Z,10.10
2022-08-26T18:41:20.667Z,11.13
2022-08-26T18:43:50.445Z,10.07
2022-08-26T18:46:19.915Z,10.63
2022-08-26T18:48:51.181Z,12.88
2022-08-26T18:51:23.502Z,10.27
2022-08-26T18:53:52.005Z,10.57
2022-08-26T18:56:20.666Z,10.80
2022-08-26T18:58:49.515Z,10.52
2022-08-26T19:01:19.963Z,10.95
2022-08-26T19:03:50.134Z,10.63
2022-08-26T19:06:21.276Z,15.70
2022-08-26T19:08:50.173Z,11.07
2022-08-26T19:11:32.408Z,10.18
2022-08-26T19:14:07.639Z,10.95
2022-08-26T19:16:36.179Z,11.30
2022-08-26T19:19:04.782Z,10.68
2022-08-26T19:21:35.699Z,12.80
2022-08-26T19:24:07.174Z,10.73
2022-08-26T19:26:36.592Z,11.15
2022-08-26T19:29:04.800Z,11.13
2022-08-26T19:31:33.510Z,10.02
2022-08-26T19:34:01.686Z,9.77
2022-08-26T19:36:31.080Z,9.70
2022-08-26T19:39:03.240Z,10.07
2022-08-26T19:41:36.879Z,10.05
2022-08-26T19:44:08.328Z,10.35
2022-08-26T19:49:09.933Z,11.57
2022-08-26T19:51:38.061Z,12.63
2022-08-26T19:54:07.849Z,12.07
2022-08-26T19:56:36.690Z,11.25
2022-08-26T19:59:04.795Z,14.25
2022-08-26T20:01:32.979Z,13.63
2022-08-26T20:04:01.041Z,16.08
2022-08-26T20:06:29.099Z,13.38
2022-08-26T20:08:57.082Z,14.02
2022-08-26T20:11:26.692Z,13.45
2022-08-26T20:13:55.309Z,15.65
2022-08-26T20:16:23.476Z,15.65
2022-08-26T20:19:08.687Z,16.45
2022-08-26T20:21:39.313Z,16.50
2022-08-26T20:24:10.476Z,16.10
2022-08-26T20:26:42.475Z,16.23
2022-08-26T20:29:11.739Z,16.27
2022-08-26T20:31:40.421Z,17.23
2022-08-26T20:34:08.770Z,17.13
2022-08-26T20:36:40.268Z,18.50
2022-08-26T20:39:08.941Z,17.67
2022-08-26T20:41:37.037Z,16.42
2022-08-26T20:44:07.088Z,16.33
2022-08-26T20:49:05.953Z,17.25
2022-08-26T20:51:37.487Z,18.08
2022-08-26T20:54:06.321Z,17.52
2022-08-26T20:56:34.497Z,17.70
2022-08-26T20:59:02.787Z,20.50
2022-08-26T21:01:34.874Z,23.60
2022-08-26T21:04:06.328Z,17.50
2022-08-26T21:06:34.983Z,22.88
2022-08-26T21:09:04.551Z,22.45
2022-08-26T21:11:33.390Z,20.17
2022-08-26T21:14:07.103Z,23.60
2022-08-26T21:16:47.493Z,25.08
2022-08-26T21:19:18.066Z,22.42
2022-08-26T21:21:47.221Z,17.73
2022-08-26T21:24:15.766Z,17.75
2022-08-26T21:26:44.136Z,18.77
2022-08-26T21:29:13.568Z,15.13
2022-08-26T21:31:46.493Z,21.13
2022-08-26T21:34:18.277Z,14.05
2022-08-26T21:36:47.063Z,14.48
2022-08-26T21:39:15.860Z,13.50
2022-08-26T21:41:45.155Z,13.10
2022-08-26T21:44:14.684Z,13.53
2022-08-26T21:46:44.046Z,16.73
2022-08-26T21:49:15.779Z,21.53
2022-08-26T21:51:48.594Z,14.95
2022-08-26T21:54:18.122Z,17.73
2022-08-26T21:56:47.912Z,14.25
2022-08-26T21:59:18.257Z,14.88
2022-08-26T22:01:47.146Z,15.30
2022-08-26T22:04:15.918Z,12.35
2022-08-26T22:06:47.304Z,12.38
2022-08-26T22:09:18.031Z,12.15
2022-08-26T22:11:47.526Z,10.43
2022-08-26T22:14:17.477Z,10.48
2022-08-26T22:16:50.570Z,11.90
2022-08-26T22:19:20.111Z,13.27
2022-08-26T22:21:50.861Z,12.93
2022-08-26T22:24:20.823Z,12.45
2022-08-26T22:26:50.050Z,11.20
2022-08-26T22:29:19.037Z,10.27
2022-08-26T22:31:47.672Z,10.95
2022-08-26T22:34:19.555Z,10.07
2022-08-26T22:36:50.621Z,10.57
2022-08-26T22:39:21.825Z,12.10
2022-08-26T22:41:50.289Z,13.10
2022-08-26T22:44:19.509Z,9.88
2022-08-26T22:46:48.806Z,10.82
2022-08-26T22:49:17.697Z,10.57
2022-08-26T22:51:46.780Z,10.50
2022-08-26T22:54:17.094Z,9.90
2022-08-26T22:56:45.858Z,13.02
2022-08-26T22:59:16.075Z,10.38
2022-08-26T23:04:13.154Z,11.80
2022-08-26T23:06:47.628Z,12.25
2022-08-26T23:09:18.983Z,13.55
2022-08-26T23:11:48.470Z,11.63
2022-08-26T23:14:17.563Z,10.85
2022-08-26T23:16:45.656Z,10.32
2022-08-26T23:19:15.854Z,13.85
2022-08-26T23:24:12.941Z,12.18
2022-08-26T23:26:43.692Z,12.40
2022-08-26T23:29:14.105Z,11.10
2022-08-26T23:31:43.449Z,13.85
2022-08-26T23:34:29.879Z,14.67
2022-08-26T23:36:59.042Z,16.23
2022-08-26T23:39:28.288Z,18.35
2022-08-26T23:41:58.137Z,15.00
2022-08-26T23:44:26.785Z,12.40
2022-08-26T23:46:55.156Z,18.02
2022-08-26T23:49:23.647Z,13.90
2022-08-26T23:52:05.749Z,11.50
2022-08-26T23:54:33.970Z,16.10
2022-08-26T23:57:03.600Z,15.98
2022-08-26T23:59:31.682Z,15.10
